Avon, MS

10:08 AM CDT on September 19, 2014 (GMT -0500)
Mid Delta Regional | Change Station
CLOSE
Current Station
Airport
Location: Greenville,
Elevation: 131 ft
Nearby Weather Stations

Elev 131 ft 33.48 °N, 90.99 °W | Updated 15 minutes ago

Clear
Clear
78 °F
Feels Like 78 °F
N
9
Wind Variable Wind from SE

Today
High -- | Low -- °F
--% Chance of Precip.
Yesterday
High -- | Low -- °F
Precip. -- in
6:50 AM 7:04 PM
Waning Crescent, 18% visible
Pressure 30.03 in
Visibility 10.0 miles
Clouds Clear
Dew Point 67 °F
Humidity 68%
Rainfall 0.00 in
Snow Depth Not available.
UV 4 out of 12
Pollen 10.30 out of 12
Air Quality Not available.
Flu Activity Not available.
METAR KGLH 191453Z AUTO 13008KT 10SM CLR 26/19 A3001 RMK AO2 SLP168 T02560194 51017

More Conditions Fewer Conditions

Pressure 30.03 in
Visibility 10.0 miles
Clouds Clear
Dew Point 67 °F
Humidity 68%
Rainfall 0.00 in
Snow Depth Not available.
UV 4 out of 12
Pollen 10.30 out of 12
Air Quality Not available.
Flu Activity Not available.
METAR KGLH 191453Z AUTO 13008KT 10SM CLR 26/19 A3001 RMK AO2 SLP168 T02560194 51017

More Conditions Fewer Conditions

10-Day Weather Forecast

Almanac

Astronomy

Sep. 19, 2014 Rise Set
Actual Time 6:50 AM CDT 7:04 PM CDT
Civil Twilight 6:25 AM CDT 7:29 PM CDT
Nautical Twilight 5:56 AM CDT 7:58 PM CDT
Astronomical Twilight 5:27 AM CDT 8:27 PM CDT
Moon 2:45 AM CDT 4:24 PM CDT
Length of Visible Light 13h 04m
Length of Day
12h 14m
Tomorrow will be 2m 3s shorter.
Waning Crescent, 18% of the Moon is Illuminated
Today
Waning Crescent
Sep 24
New
Oct 1
First Quarter
Oct 8
Full
Oct 15
Last Quarter

Today's Extremes

State Highs State Lows

Community

WunderPhotos

Upload Photos

1,754,633 photos uploaded!

WunderBlogs® & News

By Dr. Jeff Masters
Director of Meteorology, Weather Underground
By Kari Strenfel
Meteorologist, Weather Underground
By Christopher C. Burt
Weather Historian, Weather Underground
September 19, 2014
September 19, 2014
September 19, 2014

Nearby

Snow Depth

Station Depth Elevation
No new snow has been reported.

Earthquake Activity

City Distance Mag. Time & Date
No recent earthquake activity has been reported nearby.
Minimum magnitude displayed is 2.5.

Coastal Water Temperatures

Place Temperature
No Stations Reporting

Nearby Weather Stations